sensor_id;sensor_type;location;lat;lon;timestamp;P1;durP1;ratioP1;P2;durP2;ratioP2
76053;SDS011;64752;48.870;9.082;2023-05-18T00:01:57;23.07;;;13.27;;
76053;SDS011;64752;48.870;9.082;2023-05-18T00:04:23;18.77;;;13.20;;
76053;SDS011;64752;48.870;9.082;2023-05-18T00:06:50;23.95;;;13.10;;
76053;SDS011;64752;48.870;9.082;2023-05-18T00:09:24;23.52;;;13.48;;
76053;SDS011;64752;48.870;9.082;2023-05-18T00:11:53;20.88;;;12.25;;
76053;SDS011;64752;48.870;9.082;2023-05-18T00:14:18;24.35;;;13.75;;
76053;SDS011;64752;48.870;9.082;2023-05-18T00:16:44;19.33;;;12.60;;
76053;SDS011;64752;48.870;9.082;2023-05-18T00:19:10;25.77;;;13.73;;
76053;SDS011;64752;48.870;9.082;2023-05-18T00:21:38;22.73;;;13.43;;
76053;SDS011;64752;48.870;9.082;2023-05-18T00:24:07;20.70;;;13.43;;
76053;SDS011;64752;48.870;9.082;2023-05-18T00:26:40;21.90;;;12.90;;
76053;SDS011;64752;48.870;9.082;2023-05-18T00:29:08;22.25;;;12.05;;
76053;SDS011;64752;48.870;9.082;2023-05-18T00:31:34;19.43;;;12.53;;
76053;SDS011;64752;48.870;9.082;2023-05-18T00:34:10;22.90;;;13.27;;
76053;SDS011;64752;48.870;9.082;2023-05-18T00:36:37;21.30;;;12.48;;
76053;SDS011;64752;48.870;9.082;2023-05-18T00:39:03;19.52;;;11.95;;
76053;SDS011;64752;48.870;9.082;2023-05-18T00:41:30;21.10;;;10.82;;
76053;SDS011;64752;48.870;9.082;2023-05-18T00:43:55;16.67;;;10.82;;
76053;SDS011;64752;48.870;9.082;2023-05-18T00:46:22;20.88;;;11.35;;
76053;SDS011;64752;48.870;9.082;2023-05-18T00:48:49;17.20;;;10.50;;
76053;SDS011;64752;48.870;9.082;2023-05-18T00:51:15;17.88;;;10.90;;
76053;SDS011;64752;48.870;9.082;2023-05-18T00:53:42;20.88;;;11.23;;
76053;SDS011;64752;48.870;9.082;2023-05-18T00:56:08;22.48;;;11.20;;
76053;SDS011;64752;48.870;9.082;2023-05-18T00:58:35;21.00;;;10.90;;
76053;SDS011;64752;48.870;9.082;2023-05-18T01:01:00;20.13;;;10.75;;
76053;SDS011;64752;48.870;9.082;2023-05-18T01:03:27;18.63;;;10.52;;
76053;SDS011;64752;48.870;9.082;2023-05-18T01:05:54;22.58;;;11.88;;
76053;SDS011;64752;48.870;9.082;2023-05-18T01:08:22;23.00;;;13.20;;
76053;SDS011;64752;48.870;9.082;2023-05-18T01:13:28;18.48;;;12.23;;
76053;SDS011;64752;48.870;9.082;2023-05-18T01:16:06;21.70;;;12.48;;
76053;SDS011;64752;48.870;9.082;2023-05-18T01:18:40;21.35;;;12.50;;
76053;SDS011;64752;48.870;9.082;2023-05-18T01:21:18;23.65;;;12.27;;
76053;SDS011;64752;48.870;9.082;2023-05-18T01:26:41;20.13;;;11.27;;
76053;SDS011;64752;48.870;9.082;2023-05-18T01:29:09;20.10;;;12.60;;
76053;SDS011;64752;48.870;9.082;2023-05-18T01:31:37;27.92;;;14.10;;
76053;SDS011;64752;48.870;9.082;2023-05-18T01:34:03;20.57;;;12.27;;
76053;SDS011;64752;48.870;9.082;2023-05-18T01:36:29;17.80;;;12.02;;
76053;SDS011;64752;48.870;9.082;2023-05-18T01:38:55;19.90;;;11.65;;
76053;SDS011;64752;48.870;9.082;2023-05-18T01:41:25;18.25;;;12.38;;
76053;SDS011;64752;48.870;9.082;2023-05-18T01:46:45;20.40;;;11.93;;
76053;SDS011;64752;48.870;9.082;2023-05-18T01:49:20;19.55;;;12.32;;
76053;SDS011;64752;48.870;9.082;2023-05-18T01:52:00;18.08;;;11.95;;
76053;SDS011;64752;48.870;9.082;2023-05-18T01:54:31;18.10;;;11.00;;
76053;SDS011;64752;48.870;9.082;2023-05-18T01:56:57;16.27;;;9.55;;
76053;SDS011;64752;48.870;9.082;2023-05-18T01:59:24;15.18;;;9.15;;
76053;SDS011;64752;48.870;9.082;2023-05-18T02:01:49;14.65;;;9.57;;
76053;SDS011;64752;48.870;9.082;2023-05-18T02:04:15;18.35;;;9.10;;
76053;SDS011;64752;48.870;9.082;2023-05-18T02:06:40;13.43;;;8.68;;
76053;SDS011;64752;48.870;9.082;2023-05-18T02:09:06;14.00;;;9.18;;
76053;SDS011;64752;48.870;9.082;2023-05-18T02:11:31;18.33;;;10.07;;
76053;SDS011;64752;48.870;9.082;2023-05-18T02:13:57;19.25;;;10.43;;
76053;SDS011;64752;48.870;9.082;2023-05-18T02:16:22;18.10;;;10.20;;
76053;SDS011;64752;48.870;9.082;2023-05-18T02:18:47;19.85;;;11.45;;
76053;SDS011;64752;48.870;9.082;2023-05-18T02:21:13;20.95;;;12.18;;
76053;SDS011;64752;48.870;9.082;2023-05-18T02:23:39;20.65;;;11.63;;
76053;SDS011;64752;48.870;9.082;2023-05-18T02:26:05;24.13;;;12.13;;
76053;SDS011;64752;48.870;9.082;2023-05-18T02:28:32;29.45;;;14.55;;
76053;SDS011;64752;48.870;9.082;2023-05-18T02:31:07;22.50;;;12.43;;
76053;SDS011;64752;48.870;9.082;2023-05-18T02:33:33;21.80;;;12.32;;
76053;SDS011;64752;48.870;9.082;2023-05-18T02:36:06;23.17;;;13.13;;
76053;SDS011;64752;48.870;9.082;2023-05-18T02:38:34;20.48;;;12.55;;
76053;SDS011;64752;48.870;9.082;2023-05-18T02:41:07;24.35;;;12.95;;
76053;SDS011;64752;48.870;9.082;2023-05-18T02:43:33;26.75;;;14.68;;
76053;SDS011;64752;48.870;9.082;2023-05-18T02:45:59;27.52;;;13.90;;
76053;SDS011;64752;48.870;9.082;2023-05-18T02:48:25;25.27;;;14.20;;
76053;SDS011;64752;48.870;9.082;2023-05-18T02:50:50;29.55;;;14.52;;
76053;SDS011;64752;48.870;9.082;2023-05-18T02:53:16;26.20;;;14.05;;
76053;SDS011;64752;48.870;9.082;2023-05-18T02:55:41;26.88;;;13.93;;
76053;SDS011;64752;48.870;9.082;2023-05-18T02:58:07;23.40;;;14.18;;
76053;SDS011;64752;48.870;9.082;2023-05-18T03:00:33;24.23;;;14.27;;
76053;SDS011;64752;48.870;9.082;2023-05-18T03:02:58;31.75;;;15.13;;
76053;SDS011;64752;48.870;9.082;2023-05-18T03:05:25;31.33;;;15.63;;
76053;SDS011;64752;48.870;9.082;2023-05-18T03:07:51;29.65;;;14.85;;
76053;SDS011;64752;48.870;9.082;2023-05-18T03:10:20;29.92;;;16.42;;
76053;SDS011;64752;48.870;9.082;2023-05-18T03:12:46;31.80;;;17.35;;
76053;SDS011;64752;48.870;9.082;2023-05-18T03:15:12;42.35;;;18.38;;
76053;SDS011;64752;48.870;9.082;2023-05-18T03:17:40;33.70;;;17.92;;
76053;SDS011;64752;48.870;9.082;2023-05-18T03:20:06;30.23;;;17.52;;
76053;SDS011;64752;48.870;9.082;2023-05-18T03:22:38;29.83;;;15.82;;
76053;SDS011;64752;48.870;9.082;2023-05-18T03:25:04;27.48;;;15.07;;
76053;SDS011;64752;48.870;9.082;2023-05-18T03:27:30;27.65;;;15.00;;
76053;SDS011;64752;48.870;9.082;2023-05-18T03:29:55;30.75;;;15.80;;
76053;SDS011;64752;48.870;9.082;2023-05-18T03:32:21;26.77;;;15.05;;
76053;SDS011;64752;48.870;9.082;2023-05-18T03:37:15;24.27;;;13.05;;
76053;SDS011;64752;48.870;9.082;2023-05-18T03:39:41;27.70;;;15.35;;
76053;SDS011;64752;48.870;9.082;2023-05-18T03:42:06;28.52;;;16.75;;
76053;SDS011;64752;48.870;9.082;2023-05-18T03:44:32;45.10;;;19.10;;
76053;SDS011;64752;48.870;9.082;2023-05-18T03:46:57;37.67;;;19.13;;
76053;SDS011;64752;48.870;9.082;2023-05-18T03:49:23;48.42;;;23.95;;
76053;SDS011;64752;48.870;9.082;2023-05-18T03:51:48;43.08;;;21.85;;
76053;SDS011;64752;48.870;9.082;2023-05-18T03:54:13;45.30;;;22.67;;
76053;SDS011;64752;48.870;9.082;2023-05-18T03:56:39;41.00;;;21.77;;
76053;SDS011;64752;48.870;9.082;2023-05-18T03:59:05;45.65;;;22.05;;
76053;SDS011;64752;48.870;9.082;2023-05-18T04:01:31;50.55;;;24.60;;
76053;SDS011;64752;48.870;9.082;2023-05-18T04:03:57;42.57;;;22.80;;
76053;SDS011;64752;48.870;9.082;2023-05-18T04:06:22;43.47;;;23.63;;
76053;SDS011;64752;48.870;9.082;2023-05-18T04:11:15;41.60;;;20.30;;
76053;SDS011;64752;48.870;9.082;2023-05-18T04:13:40;44.30;;;21.80;;
76053;SDS011;64752;48.870;9.082;2023-05-18T04:16:06;42.90;;;23.45;;
76053;SDS011;64752;48.870;9.082;2023-05-18T04:18:31;60.72;;;27.73;;
76053;SDS011;64752;48.870;9.082;2023-05-18T04:20:57;59.65;;;29.58;;
76053;SDS011;64752;48.870;9.082;2023-05-18T04:23:24;43.60;;;27.40;;
76053;SDS011;64752;48.870;9.082;2023-05-18T04:25:49;52.33;;;28.80;;
76053;SDS011;64752;48.870;9.082;2023-05-18T04:28:15;60.15;;;32.70;;
76053;SDS011;64752;48.870;9.082;2023-05-18T04:30:40;46.13;;;28.10;;
76053;SDS011;64752;48.870;9.082;2023-05-18T04:33:06;45.53;;;27.70;;
76053;SDS011;64752;48.870;9.082;2023-05-18T04:35:32;25.42;;;17.13;;
76053;SDS011;64752;48.870;9.082;2023-05-18T04:37:57;19.48;;;14.15;;
76053;SDS011;64752;48.870;9.082;2023-05-18T04:40:23;22.17;;;12.10;;
76053;SDS011;64752;48.870;9.082;2023-05-18T04:42:49;18.85;;;11.90;;
76053;SDS011;64752;48.870;9.082;2023-05-18T04:45:15;16.70;;;9.18;;
76053;SDS011;64752;48.870;9.082;2023-05-18T04:47:43;15.25;;;8.77;;
76053;SDS011;64752;48.870;9.082;2023-05-18T04:52:37;16.45;;;8.30;;
76053;SDS011;64752;48.870;9.082;2023-05-18T04:55:05;10.60;;;6.57;;
76053;SDS011;64752;48.870;9.082;2023-05-18T04:57:34;11.77;;;6.90;;
76053;SDS011;64752;48.870;9.082;2023-05-18T05:00:00;10.63;;;6.13;;
76053;SDS011;64752;48.870;9.082;2023-05-18T05:02:29;12.63;;;6.80;;
76053;SDS011;64752;48.870;9.082;2023-05-18T05:04:55;11.90;;;6.45;;
76053;SDS011;64752;48.870;9.082;2023-05-18T05:07:20;10.02;;;5.65;;
76053;SDS011;64752;48.870;9.082;2023-05-18T05:09:46;11.40;;;5.70;;
76053;SDS011;64752;48.870;9.082;2023-05-18T05:12:11;10.77;;;5.00;;
76053;SDS011;64752;48.870;9.082;2023-05-18T05:14:37;9.63;;;4.80;;
76053;SDS011;64752;48.870;9.082;2023-05-18T05:17:02;8.50;;;4.50;;
76053;SDS011;64752;48.870;9.082;2023-05-18T05:19:27;11.82;;;5.05;;
76053;SDS011;64752;48.870;9.082;2023-05-18T05:21:53;8.35;;;4.13;;
76053;SDS011;64752;48.870;9.082;2023-05-18T05:24:18;11.10;;;4.85;;
76053;SDS011;64752;48.870;9.082;2023-05-18T05:26:43;9.77;;;4.30;;
76053;SDS011;64752;48.870;9.082;2023-05-18T05:29:09;9.85;;;4.28;;
76053;SDS011;64752;48.870;9.082;2023-05-18T05:31:34;10.47;;;4.17;;
76053;SDS011;64752;48.870;9.082;2023-05-18T05:34:00;9.00;;;4.00;;
76053;SDS011;64752;48.870;9.082;2023-05-18T05:36:25;8.02;;;4.10;;
76053;SDS011;64752;48.870;9.082;2023-05-18T05:38:50;7.70;;;4.03;;
76053;SDS011;64752;48.870;9.082;2023-05-18T05:41:16;11.97;;;4.30;;
76053;SDS011;64752;48.870;9.082;2023-05-18T05:43:41;8.35;;;4.10;;
76053;SDS011;64752;48.870;9.082;2023-05-18T05:46:07;8.03;;;4.23;;
76053;SDS011;64752;48.870;9.082;2023-05-18T05:48:32;7.73;;;4.57;;
76053;SDS011;64752;48.870;9.082;2023-05-18T05:50:57;8.77;;;3.93;;
76053;SDS011;64752;48.870;9.082;2023-05-18T05:53:23;8.77;;;3.80;;
76053;SDS011;64752;48.870;9.082;2023-05-18T05:55:48;10.27;;;4.40;;
76053;SDS011;64752;48.870;9.082;2023-05-18T05:58:13;7.53;;;3.80;;
76053;SDS011;64752;48.870;9.082;2023-05-18T06:00:39;8.90;;;3.93;;
76053;SDS011;64752;48.870;9.082;2023-05-18T06:03:04;8.50;;;3.70;;
76053;SDS011;64752;48.870;9.082;2023-05-18T06:05:30;9.87;;;3.70;;
76053;SDS011;64752;48.870;9.082;2023-05-18T06:07:55;7.60;;;3.30;;
76053;SDS011;64752;48.870;9.082;2023-05-18T06:10:21;10.27;;;3.70;;
76053;SDS011;64752;48.870;9.082;2023-05-18T06:12:46;9.70;;;3.60;;
76053;SDS011;64752;48.870;9.082;2023-05-18T06:15:12;9.97;;;4.00;;
76053;SDS011;64752;48.870;9.082;2023-05-18T06:17:37;9.97;;;3.80;;
76053;SDS011;64752;48.870;9.082;2023-05-18T06:20:03;8.77;;;3.47;;
76053;SDS011;64752;48.870;9.082;2023-05-18T06:22:31;9.30;;;3.67;;
76053;SDS011;64752;48.870;9.082;2023-05-18T06:24:56;7.73;;;3.13;;
76053;SDS011;64752;48.870;9.082;2023-05-18T06:27:22;8.27;;;3.30;;
76053;SDS011;64752;48.870;9.082;2023-05-18T06:29:48;8.83;;;2.90;;
76053;SDS011;64752;48.870;9.082;2023-05-18T06:32:13;7.43;;;3.03;;
76053;SDS011;64752;48.870;9.082;2023-05-18T06:34:38;7.97;;;2.93;;
76053;SDS011;64752;48.870;9.082;2023-05-18T06:37:04;7.40;;;2.83;;
76053;SDS011;64752;48.870;9.082;2023-05-18T06:39:30;9.50;;;3.07;;
76053;SDS011;64752;48.870;9.082;2023-05-18T06:41:55;7.03;;;2.83;;
76053;SDS011;64752;48.870;9.082;2023-05-18T06:44:21;9.57;;;3.07;;
76053;SDS011;64752;48.870;9.082;2023-05-18T06:46:46;11.37;;;3.27;;
76053;SDS011;64752;48.870;9.082;2023-05-18T06:49:13;10.52;;;2.80;;
76053;SDS011;64752;48.870;9.082;2023-05-18T06:51:38;7.63;;;3.10;;
76053;SDS011;64752;48.870;9.082;2023-05-18T06:54:03;10.43;;;3.03;;
76053;SDS011;64752;48.870;9.082;2023-05-18T06:56:29;8.97;;;3.10;;
76053;SDS011;64752;48.870;9.082;2023-05-18T06:58:54;9.20;;;2.80;;
76053;SDS011;64752;48.870;9.082;2023-05-18T07:01:20;8.17;;;2.90;;
76053;SDS011;64752;48.870;9.082;2023-05-18T07:03:45;6.90;;;2.90;;
76053;SDS011;64752;48.870;9.082;2023-05-18T07:06:10;8.40;;;3.03;;
76053;SDS011;64752;48.870;9.082;2023-05-18T07:08:36;14.63;;;3.53;;
76053;SDS011;64752;48.870;9.082;2023-05-18T07:11:02;8.70;;;3.17;;
76053;SDS011;64752;48.870;9.082;2023-05-18T07:13:28;9.98;;;3.22;;
76053;SDS011;64752;48.870;9.082;2023-05-18T07:15:53;10.10;;;3.20;;
76053;SDS011;64752;48.870;9.082;2023-05-18T07:18:19;9.60;;;3.07;;
76053;SDS011;64752;48.870;9.082;2023-05-18T07:20:44;6.67;;;2.87;;
76053;SDS011;64752;48.870;9.082;2023-05-18T07:23:09;9.87;;;3.20;;
76053;SDS011;64752;48.870;9.082;2023-05-18T07:25:35;11.17;;;2.90;;
76053;SDS011;64752;48.870;9.082;2023-05-18T07:28:00;13.07;;;3.50;;
76053;SDS011;64752;48.870;9.082;2023-05-18T07:30:26;8.47;;;2.63;;
76053;SDS011;64752;48.870;9.082;2023-05-18T07:32:51;8.80;;;2.90;;
76053;SDS011;64752;48.870;9.082;2023-05-18T07:35:17;8.10;;;2.97;;
76053;SDS011;64752;48.870;9.082;2023-05-18T07:37:45;7.38;;;2.90;;
76053;SDS011;64752;48.870;9.082;2023-05-18T07:40:11;8.50;;;3.03;;
76053;SDS011;64752;48.870;9.082;2023-05-18T07:42:40;9.47;;;2.97;;
76053;SDS011;64752;48.870;9.082;2023-05-18T07:45:06;8.77;;;3.20;;
76053;SDS011;64752;48.870;9.082;2023-05-18T07:49:58;9.48;;;3.05;;
76053;SDS011;64752;48.870;9.082;2023-05-18T07:52:23;7.20;;;3.40;;
76053;SDS011;64752;48.870;9.082;2023-05-18T07:54:48;9.67;;;3.40;;
76053;SDS011;64752;48.870;9.082;2023-05-18T07:57:14;10.43;;;2.93;;
76053;SDS011;64752;48.870;9.082;2023-05-18T07:59:39;8.80;;;3.10;;
76053;SDS011;64752;48.870;9.082;2023-05-18T08:02:05;8.27;;;3.20;;
76053;SDS011;64752;48.870;9.082;2023-05-18T08:04:31;7.75;;;3.15;;
76053;SDS011;64752;48.870;9.082;2023-05-18T08:09:43;10.57;;;3.08;;
76053;SDS011;64752;48.870;9.082;2023-05-18T08:12:08;9.27;;;3.00;;
76053;SDS011;64752;48.870;9.082;2023-05-18T08:14:34;10.73;;;3.43;;
76053;SDS011;64752;48.870;9.082;2023-05-18T08:16:59;8.70;;;3.47;;
76053;SDS011;64752;48.870;9.082;2023-05-18T08:19:31;12.53;;;3.37;;
76053;SDS011;64752;48.870;9.082;2023-05-18T08:21:56;8.18;;;3.15;;
76053;SDS011;64752;48.870;9.082;2023-05-18T08:24:22;10.07;;;3.00;;
76053;SDS011;64752;48.870;9.082;2023-05-18T08:26:47;11.13;;;2.80;;
76053;SDS011;64752;48.870;9.082;2023-05-18T08:29:12;7.70;;;2.93;;
76053;SDS011;64752;48.870;9.082;2023-05-18T08:31:38;9.53;;;3.23;;
76053;SDS011;64752;48.870;9.082;2023-05-18T08:34:04;12.23;;;3.05;;
76053;SDS011;64752;48.870;9.082;2023-05-18T08:36:31;7.80;;;2.65;;
76053;SDS011;64752;48.870;9.082;2023-05-18T08:38:57;9.10;;;3.05;;
76053;SDS011;64752;48.870;9.082;2023-05-18T08:41:47;11.82;;;3.30;;
76053;SDS011;64752;48.870;9.082;2023-05-18T08:44:20;7.32;;;2.40;;
76053;SDS011;64752;48.870;9.082;2023-05-18T08:46:50;10.82;;;3.28;;
76053;SDS011;64752;48.870;9.082;2023-05-18T08:49:17;9.10;;;3.10;;
76053;SDS011;64752;48.870;9.082;2023-05-18T08:51:45;11.20;;;2.80;;
76053;SDS011;64752;48.870;9.082;2023-05-18T08:54:14;9.00;;;2.80;;
76053;SDS011;64752;48.870;9.082;2023-05-18T08:56:46;11.40;;;2.92;;
76053;SDS011;64752;48.870;9.082;2023-05-18T09:01:40;13.70;;;3.42;;
76053;SDS011;64752;48.870;9.082;2023-05-18T09:04:06;8.10;;;2.67;;
76053;SDS011;64752;48.870;9.082;2023-05-18T09:06:32;11.73;;;3.20;;
76053;SDS011;64752;48.870;9.082;2023-05-18T09:08:59;9.20;;;2.92;;
76053;SDS011;64752;48.870;9.082;2023-05-18T09:11:28;6.65;;;2.67;;
76053;SDS011;64752;48.870;9.082;2023-05-18T09:13:56;11.00;;;3.05;;
76053;SDS011;64752;48.870;9.082;2023-05-18T09:16:23;8.27;;;2.90;;
76053;SDS011;64752;48.870;9.082;2023-05-18T09:18:48;9.93;;;3.10;;
76053;SDS011;64752;48.870;9.082;2023-05-18T09:21:14;8.87;;;3.00;;
76053;SDS011;64752;48.870;9.082;2023-05-18T09:23:39;17.10;;;2.67;;
76053;SDS011;64752;48.870;9.082;2023-05-18T09:26:06;8.48;;;2.67;;
76053;SDS011;64752;48.870;9.082;2023-05-18T09:28:41;8.75;;;2.95;;
76053;SDS011;64752;48.870;9.082;2023-05-18T09:31:08;10.80;;;3.60;;
76053;SDS011;64752;48.870;9.082;2023-05-18T09:33:37;10.75;;;3.03;;
76053;SDS011;64752;48.870;9.082;2023-05-18T09:36:04;8.88;;;2.92;;
76053;SDS011;64752;48.870;9.082;2023-05-18T09:38:31;8.90;;;2.63;;
76053;SDS011;64752;48.870;9.082;2023-05-18T09:41:01;9.55;;;3.05;;
76053;SDS011;64752;48.870;9.082;2023-05-18T09:43:26;8.40;;;2.63;;
76053;SDS011;64752;48.870;9.082;2023-05-18T09:45:51;10.50;;;3.37;;
76053;SDS011;64752;48.870;9.082;2023-05-18T09:48:17;9.07;;;2.93;;
76053;SDS011;64752;48.870;9.082;2023-05-18T09:50:43;11.10;;;2.90;;
76053;SDS011;64752;48.870;9.082;2023-05-18T09:53:09;8.77;;;3.03;;
76053;SDS011;64752;48.870;9.082;2023-05-18T09:55:45;8.98;;;2.88;;
76053;SDS011;64752;48.870;9.082;2023-05-18T09:58:11;11.10;;;3.37;;
76053;SDS011;64752;48.870;9.082;2023-05-18T10:00:39;10.87;;;3.20;;
76053;SDS011;64752;48.870;9.082;2023-05-18T10:03:15;8.05;;;2.70;;
76053;SDS011;64752;48.870;9.082;2023-05-18T10:05:42;7.95;;;2.78;;
76053;SDS011;64752;48.870;9.082;2023-05-18T10:08:07;8.70;;;2.70;;
76053;SDS011;64752;48.870;9.082;2023-05-18T10:10:36;9.20;;;3.37;;
76053;SDS011;64752;48.870;9.082;2023-05-18T10:13:02;10.10;;;3.38;;
76053;SDS011;64752;48.870;9.082;2023-05-18T10:15:28;7.65;;;3.00;;
76053;SDS011;64752;48.870;9.082;2023-05-18T10:17:54;9.47;;;3.23;;
76053;SDS011;64752;48.870;9.082;2023-05-18T10:20:21;10.20;;;3.00;;
76053;SDS011;64752;48.870;9.082;2023-05-18T10:22:49;9.25;;;3.08;;
76053;SDS011;64752;48.870;9.082;2023-05-18T10:27:44;8.77;;;2.85;;
76053;SDS011;64752;48.870;9.082;2023-05-18T10:30:12;10.95;;;3.47;;
76053;SDS011;64752;48.870;9.082;2023-05-18T10:32:38;12.95;;;3.13;;
76053;SDS011;64752;48.870;9.082;2023-05-18T10:35:04;13.60;;;3.80;;
76053;SDS011;64752;48.870;9.082;2023-05-18T10:37:32;10.93;;;3.25;;
76053;SDS011;64752;48.870;9.082;2023-05-18T10:40:00;7.47;;;3.08;;
76053;SDS011;64752;48.870;9.082;2023-05-18T10:42:27;8.00;;;3.28;;
76053;SDS011;64752;48.870;9.082;2023-05-18T10:44:54;11.30;;;3.88;;
76053;SDS011;64752;48.870;9.082;2023-05-18T10:47:21;10.63;;;3.58;;
76053;SDS011;64752;48.870;9.082;2023-05-18T10:49:50;9.60;;;3.40;;
76053;SDS011;64752;48.870;9.082;2023-05-18T10:52:16;8.32;;;2.78;;
76053;SDS011;64752;48.870;9.082;2023-05-18T10:54:42;7.23;;;2.83;;
76053;SDS011;64752;48.870;9.082;2023-05-18T10:57:09;8.70;;;3.10;;
76053;SDS011;64752;48.870;9.082;2023-05-18T10:59:41;8.35;;;2.95;;
76053;SDS011;64752;48.870;9.082;2023-05-18T11:02:09;9.93;;;3.30;;
76053;SDS011;64752;48.870;9.082;2023-05-18T11:04:37;9.18;;;2.90;;
76053;SDS011;64752;48.870;9.082;2023-05-18T11:07:04;8.93;;;3.15;;
76053;SDS011;64752;48.870;9.082;2023-05-18T11:09:29;7.90;;;2.60;;
76053;SDS011;64752;48.870;9.082;2023-05-18T11:14:23;8.02;;;2.85;;
76053;SDS011;64752;48.870;9.082;2023-05-18T11:16:51;10.13;;;3.30;;
76053;SDS011;64752;48.870;9.082;2023-05-18T11:19:16;13.20;;;3.30;;
76053;SDS011;64752;48.870;9.082;2023-05-18T11:26:55;13.00;;;3.45;;
76053;SDS011;64752;48.870;9.082;2023-05-18T11:31:53;8.00;;;2.67;;
76053;SDS011;64752;48.870;9.082;2023-05-18T11:37:03;9.88;;;2.78;;
76053;SDS011;64752;48.870;9.082;2023-05-18T11:39:30;6.45;;;2.50;;
76053;SDS011;64752;48.870;9.082;2023-05-18T11:42:00;9.43;;;2.58;;
76053;SDS011;64752;48.870;9.082;2023-05-18T11:44:36;10.10;;;2.50;;
76053;SDS011;64752;48.870;9.082;2023-05-18T11:47:04;7.55;;;2.70;;
76053;SDS011;64752;48.870;9.082;2023-05-18T11:49:45;10.85;;;2.88;;
76053;SDS011;64752;48.870;9.082;2023-05-18T11:54:57;6.97;;;2.70;;
76053;SDS011;64752;48.870;9.082;2023-05-18T11:57:24;8.52;;;2.60;;
76053;SDS011;64752;48.870;9.082;2023-05-18T11:59:56;7.55;;;2.47;;
76053;SDS011;64752;48.870;9.082;2023-05-18T12:02:23;13.15;;;3.15;;
76053;SDS011;64752;48.870;9.082;2023-05-18T12:04:53;8.07;;;2.88;;
76053;SDS011;64752;48.870;9.082;2023-05-18T12:07:20;7.10;;;2.58;;
76053;SDS011;64752;48.870;9.082;2023-05-18T12:09:46;7.68;;;2.80;;
76053;SDS011;64752;48.870;9.082;2023-05-18T12:12:14;7.97;;;2.25;;
76053;SDS011;64752;48.870;9.082;2023-05-18T12:14:43;6.80;;;2.60;;
76053;SDS011;64752;48.870;9.082;2023-05-18T12:17:14;8.10;;;2.50;;
76053;SDS011;64752;48.870;9.082;2023-05-18T12:19:43;7.90;;;2.83;;
76053;SDS011;64752;48.870;9.082;2023-05-18T12:22:10;8.85;;;2.70;;
76053;SDS011;64752;48.870;9.082;2023-05-18T12:24:36;7.93;;;2.73;;
76053;SDS011;64752;48.870;9.082;2023-05-18T12:27:09;6.65;;;2.40;;
76053;SDS011;64752;48.870;9.082;2023-05-18T12:29:37;6.03;;;2.13;;
76053;SDS011;64752;48.870;9.082;2023-05-18T12:32:09;8.00;;;2.33;;
76053;SDS011;64752;48.870;9.082;2023-05-18T12:34:36;7.93;;;2.28;;
76053;SDS011;64752;48.870;9.082;2023-05-18T12:39:28;6.57;;;2.40;;
76053;SDS011;64752;48.870;9.082;2023-05-18T12:42:06;8.60;;;2.40;;
76053;SDS011;64752;48.870;9.082;2023-05-18T12:44:36;6.97;;;2.50;;
76053;SDS011;64752;48.870;9.082;2023-05-18T12:47:02;7.82;;;3.05;;
76053;SDS011;64752;48.870;9.082;2023-05-18T12:49:28;11.97;;;2.90;;
76053;SDS011;64752;48.870;9.082;2023-05-18T12:51:54;6.83;;;2.60;;
76053;SDS011;64752;48.870;9.082;2023-05-18T12:54:26;11.63;;;2.35;;
76053;SDS011;64752;48.870;9.082;2023-05-18T12:56:54;5.45;;;2.22;;
76053;SDS011;64752;48.870;9.082;2023-05-18T12:59:24;10.43;;;2.60;;
76053;SDS011;64752;48.870;9.082;2023-05-18T13:01:51;10.52;;;2.55;;
76053;SDS011;64752;48.870;9.082;2023-05-18T13:04:17;5.60;;;2.17;;
76053;SDS011;64752;48.870;9.082;2023-05-18T13:06:43;8.00;;;2.27;;
76053;SDS011;64752;48.870;9.082;2023-05-18T13:09:11;7.77;;;2.80;;
76053;SDS011;64752;48.870;9.082;2023-05-18T13:11:38;9.32;;;2.42;;
76053;SDS011;64752;48.870;9.082;2023-05-18T13:14:04;5.55;;;2.10;;
76053;SDS011;64752;48.870;9.082;2023-05-18T13:16:44;7.50;;;2.47;;
76053;SDS011;64752;48.870;9.082;2023-05-18T13:19:09;9.73;;;2.88;;
76053;SDS011;64752;48.870;9.082;2023-05-18T13:21:40;7.25;;;2.42;;
76053;SDS011;64752;48.870;9.082;2023-05-18T13:24:06;10.38;;;2.90;;
76053;SDS011;64752;48.870;9.082;2023-05-18T13:26:31;11.30;;;3.07;;
76053;SDS011;64752;48.870;9.082;2023-05-18T13:28:57;7.07;;;2.57;;
76053;SDS011;64752;48.870;9.082;2023-05-18T13:31:23;7.13;;;2.55;;
76053;SDS011;64752;48.870;9.082;2023-05-18T13:33:49;9.73;;;2.43;;
76053;SDS011;64752;48.870;9.082;2023-05-18T13:36:15;6.27;;;2.33;;
76053;SDS011;64752;48.870;9.082;2023-05-18T13:38:41;9.35;;;2.88;;
76053;SDS011;64752;48.870;9.082;2023-05-18T13:41:08;5.27;;;2.27;;
76053;SDS011;64752;48.870;9.082;2023-05-18T13:43:35;8.63;;;2.58;;
76053;SDS011;64752;48.870;9.082;2023-05-18T13:46:01;9.33;;;2.70;;
76053;SDS011;64752;48.870;9.082;2023-05-18T13:48:27;9.27;;;2.30;;
76053;SDS011;64752;48.870;9.082;2023-05-18T13:50:53;10.45;;;2.83;;
76053;SDS011;64752;48.870;9.082;2023-05-18T13:53:19;9.70;;;2.72;;
76053;SDS011;64752;48.870;9.082;2023-05-18T13:55:48;6.47;;;2.53;;
76053;SDS011;64752;48.870;9.082;2023-05-18T13:58:14;7.13;;;2.33;;
76053;SDS011;64752;48.870;9.082;2023-05-18T14:00:40;6.53;;;2.30;;
76053;SDS011;64752;48.870;9.082;2023-05-18T14:03:06;10.57;;;2.97;;
76053;SDS011;64752;48.870;9.082;2023-05-18T14:05:31;10.97;;;3.03;;
76053;SDS011;64752;48.870;9.082;2023-05-18T14:07:57;5.53;;;2.30;;
76053;SDS011;64752;48.870;9.082;2023-05-18T14:10:22;12.50;;;2.77;;
76053;SDS011;64752;48.870;9.082;2023-05-18T14:12:47;6.93;;;2.27;;
76053;SDS011;64752;48.870;9.082;2023-05-18T14:15:13;7.33;;;2.73;;
76053;SDS011;64752;48.870;9.082;2023-05-18T14:17:38;6.87;;;2.57;;
76053;SDS011;64752;48.870;9.082;2023-05-18T14:20:04;9.93;;;2.80;;
76053;SDS011;64752;48.870;9.082;2023-05-18T14:22:30;10.25;;;2.70;;
76053;SDS011;64752;48.870;9.082;2023-05-18T14:24:56;10.45;;;2.60;;
76053;SDS011;64752;48.870;9.082;2023-05-18T14:27:22;8.67;;;2.63;;
76053;SDS011;64752;48.870;9.082;2023-05-18T14:29:48;7.97;;;2.30;;
76053;SDS011;64752;48.870;9.082;2023-05-18T14:32:14;7.53;;;2.20;;
76053;SDS011;64752;48.870;9.082;2023-05-18T14:34:39;7.83;;;2.23;;
76053;SDS011;64752;48.870;9.082;2023-05-18T14:37:05;8.97;;;2.40;;
76053;SDS011;64752;48.870;9.082;2023-05-18T14:39:30;8.80;;;2.60;;
76053;SDS011;64752;48.870;9.082;2023-05-18T14:41:55;6.30;;;2.47;;
76053;SDS011;64752;48.870;9.082;2023-05-18T14:44:21;8.23;;;2.47;;
76053;SDS011;64752;48.870;9.082;2023-05-18T14:46:46;9.07;;;2.77;;
76053;SDS011;64752;48.870;9.082;2023-05-18T14:49:11;8.47;;;2.60;;
76053;SDS011;64752;48.870;9.082;2023-05-18T14:51:37;7.70;;;2.50;;
76053;SDS011;64752;48.870;9.082;2023-05-18T14:54:02;6.90;;;2.50;;
76053;SDS011;64752;48.870;9.082;2023-05-18T14:56:28;10.60;;;2.83;;
76053;SDS011;64752;48.870;9.082;2023-05-18T14:58:53;7.80;;;2.50;;
76053;SDS011;64752;48.870;9.082;2023-05-18T15:01:18;9.57;;;2.37;;
76053;SDS011;64752;48.870;9.082;2023-05-18T15:03:44;10.77;;;3.17;;
76053;SDS011;64752;48.870;9.082;2023-05-18T15:06:09;14.90;;;2.87;;
76053;SDS011;64752;48.870;9.082;2023-05-18T15:08:35;9.90;;;2.90;;
76053;SDS011;64752;48.870;9.082;2023-05-18T15:11:00;14.33;;;2.80;;
76053;SDS011;64752;48.870;9.082;2023-05-18T15:13:25;11.03;;;2.60;;
76053;SDS011;64752;48.870;9.082;2023-05-18T15:15:51;7.47;;;2.60;;
76053;SDS011;64752;48.870;9.082;2023-05-18T15:18:17;9.83;;;3.17;;